Time;durP1;ratioP1;P1;durP2;ratioP2;P2;SDS_P1;SDS_P2;PMS_P1;PMS_P2;Temp;Humidity;BMP_temperature;BMP_pressure;BME280_temperature;BME280_humidity;BME280_pressure;Samples;Min_cycle;Max_cycle;Signal;HPM_P1;HPM_P2
2023/09/16 00:01:03;;;;;;;12.05;8.88;;;17.60;84.60;;;;;;4957858;28;20393;-76
2023/09/16 00:03:29;;;;;;;12.13;8.90;;;17.60;84.70;;;;;;4945573;28;20042;-76
2023/09/16 00:05:56;;;;;;;10.77;8.38;;;17.50;84.80;;;;;;4934745;28;20317;-76
2023/09/16 00:08:22;;;;;;;11.10;9.00;;;17.50;84.80;;;;;;5010773;28;20075;-76
2023/09/16 00:10:48;;;;;;;11.38;8.77;;;17.50;84.90;;;;;;5035716;28;20048;-76
2023/09/16 00:13:14;;;;;;;10.90;9.00;;;17.50;84.90;;;;;;4973699;28;20347;-75
2023/09/16 00:15:39;;;;;;;11.70;8.50;;;17.40;85.00;;;;;;4971082;28;20551;-75
2023/09/16 00:18:05;;;;;;;10.70;8.80;;;17.40;85.20;;;;;;4961922;28;20038;-77
2023/09/16 00:20:31;;;;;;;12.80;8.88;;;17.40;85.20;;;;;;4952795;28;20060;-77
2023/09/16 00:22:57;;;;;;;12.10;9.25;;;17.40;85.20;;;;;;4955017;28;20088;-76
2023/09/16 00:25:22;;;;;;;11.73;8.85;;;17.40;85.00;;;;;;4976603;28;20490;-75
2023/09/16 00:27:48;;;;;;;13.25;9.10;;;17.40;85.00;;;;;;4953916;28;20057;-76
2023/09/16 00:30:14;;;;;;;13.57;9.65;;;17.30;85.00;;;;;;4953575;28;20723;-75
2023/09/16 00:32:40;;;;;;;13.50;9.38;;;17.30;85.20;;;;;;4960585;28;20050;-76
2023/09/16 00:35:06;;;;;;;10.63;8.65;;;17.30;85.30;;;;;;4959949;28;20128;-76
2023/09/16 00:37:32;;;;;;;11.50;8.73;;;17.20;85.50;;;;;;4956175;28;20031;-75
2023/09/16 00:39:57;;;;;;;15.27;8.90;;;17.20;85.60;;;;;;4964468;28;20027;-75
2023/09/16 00:42:23;;;;;;;12.23;9.60;;;17.10;85.60;;;;;;4964841;28;20038;-74
2023/09/16 00:44:49;;;;;;;10.93;8.70;;;17.20;85.70;;;;;;4955542;28;20105;-77
2023/09/16 00:47:15;;;;;;;12.20;9.15;;;17.10;85.70;;;;;;4958887;28;20234;-75
2023/09/16 00:49:41;;;;;;;12.30;9.40;;;17.10;85.70;;;;;;4960423;28;20027;-75
2023/09/16 00:52:07;;;;;;;13.38;9.05;;;17.10;85.80;;;;;;4953144;28;20118;-76
2023/09/16 00:54:34;;;;;;;12.63;8.48;;;17.10;85.90;;;;;;4961988;28;20034;-76
2023/09/16 00:57:01;;;;;;;17.60;9.43;;;17.00;86.00;;;;;;4952937;28;20032;-76
2023/09/16 00:59:28;;;;;;;10.40;8.82;;;17.00;86.10;;;;;;4945264;28;20085;-76
2023/09/16 01:01:55;;;;;;;13.35;9.85;;;17.00;86.20;;;;;;4950925;28;20436;-77
2023/09/16 01:04:21;;;;;;;13.38;9.25;;;17.00;86.20;;;;;;4934540;28;20028;-76
2023/09/16 01:06:50;;;;;;;12.27;8.98;;;17.00;86.20;;;;;;4935797;28;20031;-76
2023/09/16 01:09:17;;;;;;;11.63;8.82;;;16.80;86.20;;;;;;4942850;28;20047;-78
2023/09/16 01:11:46;;;;;;;14.13;10.45;;;16.80;86.40;;;;;;4942499;28;20031;-76
2023/09/16 01:14:12;;;;;;;12.48;9.35;;;16.80;86.60;;;;;;4956946;28;20526;-77
2023/09/16 01:16:52;;;;;;;12.55;9.68;;;16.80;86.80;;;;;;4956117;28;20118;-76
2023/09/16 01:19:33;;;;;;;13.70;10.15;;;16.70;86.90;;;;;;4953898;28;20024;-76
2023/09/16 01:21:59;;;;;;;12.90;10.27;;;16.80;86.90;;;;;;4939066;28;20032;-77
2023/09/16 01:24:25;;;;;;;13.00;9.52;;;16.80;86.80;;;;;;4938299;28;20032;-75
2023/09/16 01:26:51;;;;;;;12.00;9.73;;;16.70;86.80;;;;;;4934804;28;20377;-76
2023/09/16 01:29:18;;;;;;;12.13;9.65;;;16.70;86.90;;;;;;4957475;28;20061;-76
2023/09/16 01:31:46;;;;;;;13.95;9.90;;;16.70;87.00;;;;;;4952709;28;20035;-77
2023/09/16 01:34:37;;;;;;;13.20;9.60;;;16.70;87.10;;;;;;4957228;28;20102;-76
2023/09/16 01:37:06;;;;;;;12.15;9.98;;;16.60;87.20;;;;;;4961670;28;20093;-76
2023/09/16 01:39:32;;;;;;;12.52;9.30;;;16.60;87.30;;;;;;4952588;28;20045;-76
2023/09/16 01:42:00;;;;;;;12.35;9.13;;;16.60;87.30;;;;;;4958353;28;20035;-77
2023/09/16 01:44:26;;;;;;;11.90;8.88;;;16.60;87.20;;;;;;4952376;28;20433;-76
2023/09/16 01:46:58;;;;;;;13.18;9.15;;;16.60;87.20;;;;;;4962643;28;20352;-77
2023/09/16 01:49:23;;;;;;;14.02;10.93;;;16.60;87.30;;;;;;4960001;28;20520;-76
2023/09/16 01:51:49;;;;;;;11.65;9.88;;;16.60;87.20;;;;;;4958792;28;20150;-76
2023/09/16 01:54:15;;;;;;;14.05;10.45;;;16.60;87.30;;;;;;4953948;28;20023;-75
2023/09/16 01:56:44;;;;;;;14.07;10.30;;;16.60;87.30;;;;;;4947563;28;20027;-76
2023/09/16 01:59:09;;;;;;;13.32;9.48;;;16.60;87.30;;;;;;4949449;28;20338;-76
2023/09/16 02:01:35;;;;;;;13.27;10.27;;;16.60;87.40;;;;;;4958663;28;20052;-76
2023/09/16 02:04:01;;;;;;;12.52;9.93;;;16.60;87.50;;;;;;4941677;28;20046;-75
2023/09/16 02:06:27;;;;;;;12.93;10.25;;;16.60;87.50;;;;;;4934135;28;20039;-75
2023/09/16 02:08:52;;;;;;;14.85;10.90;;;16.50;87.60;;;;;;4955696;28;20035;-76
2023/09/16 02:11:18;;;;;;;13.38;9.73;;;16.50;87.60;;;;;;4969344;28;20023;-75
2023/09/16 02:13:43;;;;;;;14.32;10.75;;;16.50;87.50;;;;;;5027550;28;20392;-76
2023/09/16 02:16:13;;;;;;;14.25;11.05;;;16.40;87.60;;;;;;5039762;28;20033;-76
2023/09/16 02:18:39;;;;;;;14.93;11.27;;;16.40;87.70;;;;;;4966849;28;20425;-75
2023/09/16 02:21:05;;;;;;;14.57;11.27;;;16.40;87.80;;;;;;4959450;28;20445;-77
2023/09/16 02:23:30;;;;;;;14.30;10.80;;;16.30;87.80;;;;;;4947570;28;20031;-76
2023/09/16 02:26:01;;;;;;;15.65;11.18;;;16.30;88.00;;;;;;4940196;28;20643;-77
2023/09/16 02:28:26;;;;;;;12.98;10.65;;;16.30;88.10;;;;;;4938365;28;20051;-77
2023/09/16 02:30:52;;;;;;;12.05;10.75;;;16.30;88.20;;;;;;4941146;29;20102;-77
2023/09/16 02:33:18;;;;;;;13.40;10.98;;;16.20;88.20;;;;;;4955367;28;20124;-77
2023/09/16 02:35:43;;;;;;;14.20;11.35;;;16.30;88.30;;;;;;4939634;28;20031;-76
2023/09/16 02:38:09;;;;;;;16.73;11.90;;;16.30;88.30;;;;;;4974509;28;20047;-76
2023/09/16 02:40:40;;;;;;;14.60;11.98;;;16.20;88.20;;;;;;4952712;28;20023;-76
2023/09/16 02:43:06;;;;;;;13.95;12.32;;;16.20;88.40;;;;;;4957724;28;20138;-76
2023/09/16 02:45:31;;;;;;;15.35;12.60;;;16.10;88.40;;;;;;4962066;28;20029;-77
2023/09/16 02:47:57;;;;;;;13.40;11.73;;;16.10;88.50;;;;;;4948041;28;20082;-75
2023/09/16 02:50:23;;;;;;;12.63;11.27;;;16.10;88.70;;;;;;4940539;28;20055;-77
2023/09/16 02:52:48;;;;;;;16.58;13.30;;;16.10;88.70;;;;;;4941784;28;20046;-75
2023/09/16 02:55:16;;;;;;;14.32;11.82;;;16.10;88.70;;;;;;4957982;28;20053;-76
2023/09/16 02:57:41;;;;;;;14.70;12.27;;;16.00;88.90;;;;;;4942873;28;20039;-75
2023/09/16 03:00:07;;;;;;;14.98;11.88;;;15.90;89.00;;;;;;4934815;28;20081;-75
2023/09/16 03:02:33;;;;;;;14.38;11.30;;;15.90;89.10;;;;;;4938105;28;20414;-76
2023/09/16 03:04:59;;;;;;;14.10;11.55;;;15.90;89.20;;;;;;4939972;28;20355;-76
2023/09/16 03:07:24;;;;;;;15.45;11.90;;;15.90;89.10;;;;;;4946764;28;20489;-75
2023/09/16 03:09:50;;;;;;;13.45;11.27;;;15.80;89.20;;;;;;4937813;28;20498;-75
2023/09/16 03:12:16;;;;;;;15.32;11.80;;;15.90;89.20;;;;;;4942197;28;20051;-77
2023/09/16 03:14:41;;;;;;;12.90;10.68;;;15.80;89.30;;;;;;4952255;28;20082;-76
2023/09/16 03:17:07;;;;;;;13.32;11.38;;;15.90;89.30;;;;;;4940128;28;20063;-76
2023/09/16 03:19:33;;;;;;;13.95;10.55;;;15.90;89.20;;;;;;4948246;28;20496;-77
2023/09/16 03:21:58;;;;;;;13.30;11.00;;;15.80;89.10;;;;;;4939597;28;20040;-77
2023/09/16 03:24:24;;;;;;;14.52;11.70;;;15.90;89.10;;;;;;4937101;28;20082;-77
2023/09/16 03:26:49;;;;;;;14.25;11.73;;;15.80;89.10;;;;;;4937519;28;20038;-77
2023/09/16 03:29:17;;;;;;;13.70;11.68;;;15.80;89.10;;;;;;4939781;28;20050;-77
2023/09/16 03:31:43;;;;;;;14.82;12.52;;;15.70;89.20;;;;;;4940490;28;20301;-77
2023/09/16 03:34:09;;;;;;;15.52;12.13;;;15.70;89.30;;;;;;4953494;28;20048;-76
2023/09/16 03:36:34;;;;;;;16.02;12.55;;;15.60;89.40;;;;;;4958066;28;20019;-77
2023/09/16 03:39:00;;;;;;;14.63;12.13;;;15.60;89.60;;;;;;4936169;28;20028;-77
2023/09/16 03:41:25;;;;;;;16.90;13.38;;;15.60;89.70;;;;;;4938238;28;20385;-76
2023/09/16 03:43:51;;;;;;;14.82;12.00;;;15.60;89.80;;;;;;4937229;28;20042;-77
2023/09/16 03:46:17;;;;;;;15.45;12.05;;;15.60;89.80;;;;;;4940901;28;20775;-76
2023/09/16 03:48:42;;;;;;;15.38;12.32;;;15.60;89.80;;;;;;4936956;28;20027;-76
2023/09/16 03:51:08;;;;;;;15.45;12.07;;;15.60;89.90;;;;;;4936755;28;20149;-75
2023/09/16 03:53:35;;;;;;;14.30;11.57;;;15.60;89.70;;;;;;4933619;28;20351;-75
2023/09/16 03:56:05;;;;;;;14.75;11.65;;;15.70;89.60;;;;;;4934466;28;20090;-76
2023/09/16 03:58:34;;;;;;;14.88;12.30;;;15.70;89.60;;;;;;4935446;28;20039;-75
2023/09/16 04:01:00;;;;;;;13.50;11.35;;;15.70;89.60;;;;;;4948891;28;20027;-76
2023/09/16 04:03:25;;;;;;;16.40;12.02;;;15.70;89.50;;;;;;4939618;28;20366;-77
2023/09/16 04:05:56;;;;;;;14.95;11.43;;;15.70;89.50;;;;;;4940017;28;20019;-76
2023/09/16 04:08:22;;;;;;;15.32;12.80;;;15.70;89.40;;;;;;4970732;28;20243;-76
2023/09/16 04:10:48;;;;;;;13.73;12.23;;;15.70;89.30;;;;;;4973386;28;20061;-76
2023/09/16 04:13:14;;;;;;;14.48;11.82;;;15.60;89.30;;;;;;4983025;28;20073;-75
2023/09/16 04:15:39;;;;;;;14.98;11.93;;;15.60;89.20;;;;;;4982600;28;20083;-76
2023/09/16 04:18:05;;;;;;;13.32;10.85;;;15.60;89.20;;;;;;4965179;28;20481;-75
2023/09/16 04:20:31;;;;;;;15.80;11.27;;;15.60;89.20;;;;;;4937721;28;20019;-75
2023/09/16 04:22:56;;;;;;;14.38;11.77;;;15.70;89.20;;;;;;4946353;28;20039;-76
2023/09/16 04:25:23;;;;;;;14.10;11.40;;;15.60;89.10;;;;;;4940087;28;20031;-76
2023/09/16 04:27:49;;;;;;;15.30;12.30;;;15.60;89.00;;;;;;4944321;28;20711;-76
2023/09/16 04:30:14;;;;;;;12.95;11.30;;;15.60;89.00;;;;;;4941179;28;20035;-75
2023/09/16 04:32:43;;;;;;;15.38;11.85;;;15.60;89.00;;;;;;4939729;28;20657;-77
2023/09/16 04:35:10;;;;;;;14.07;11.63;;;15.60;89.10;;;;;;4970756;28;20102;-77
2023/09/16 04:37:36;;;;;;;14.80;11.52;;;15.60;89.10;;;;;;4967329;28;20088;-77
2023/09/16 04:40:09;;;;;;;19.35;12.80;;;15.60;89.10;;;;;;4953505;28;20035;-77
2023/09/16 04:42:36;;;;;;;15.50;12.32;;;15.60;89.20;;;;;;4946089;28;20083;-77
2023/09/16 04:45:04;;;;;;;16.00;12.25;;;15.50;89.10;;;;;;4943329;28;20051;-76
2023/09/16 04:47:29;;;;;;;18.33;13.65;;;15.40;89.50;;;;;;4942167;28;20039;-77
2023/09/16 04:49:55;;;;;;;15.45;13.25;;;15.30;89.70;;;;;;4938407;28;20351;-76
2023/09/16 04:52:25;;;;;;;14.95;12.60;;;15.30;89.90;;;;;;4941417;28;20512;-77
2023/09/16 04:54:53;;;;;;;15.95;12.60;;;15.30;89.90;;;;;;4943916;28;20096;-77
2023/09/16 04:57:21;;;;;;;17.63;13.45;;;15.30;90.00;;;;;;4957363;28;20390;-78
2023/09/16 04:59:47;;;;;;;13.75;12.30;;;15.30;90.00;;;;;;4952589;28;20085;-77
2023/09/16 05:02:13;;;;;;;15.63;12.77;;;15.30;90.10;;;;;;4964149;28;20047;-77
2023/09/16 05:04:39;;;;;;;15.55;12.90;;;15.30;90.00;;;;;;4937071;28;20077;-77
2023/09/16 05:07:05;;;;;;;15.27;11.68;;;15.30;89.90;;;;;;4958388;28;20421;-77
2023/09/16 05:09:31;;;;;;;16.60;13.05;;;15.20;89.70;;;;;;4942990;28;20339;-77
2023/09/16 05:11:57;;;;;;;14.00;11.40;;;15.10;89.60;;;;;;4943476;28;20457;-77
2023/09/16 05:14:26;;;;;;;19.80;13.88;;;15.20;89.80;;;;;;4957582;28;20057;-77
2023/09/16 05:16:51;;;;;;;14.82;12.80;;;15.10;89.90;;;;;;4954801;28;20032;-77
2023/09/16 05:19:17;;;;;;;16.98;12.95;;;15.20;89.90;;;;;;4962263;28;20031;-77
2023/09/16 05:21:43;;;;;;;14.00;12.50;;;15.20;90.00;;;;;;4951663;28;20035;-77
2023/09/16 05:24:08;;;;;;;18.02;13.48;;;15.20;90.00;;;;;;4958936;28;20034;-78
2023/09/16 05:26:34;;;;;;;17.30;13.23;;;15.20;89.70;;;;;;4956295;28;20026;-78
2023/09/16 05:29:00;;;;;;;19.55;13.02;;;15.10;89.80;;;;;;4954450;28;20124;-78
2023/09/16 05:31:26;;;;;;;20.20;14.23;;;15.10;89.90;;;;;;4955824;28;20243;-76
2023/09/16 05:33:52;;;;;;;21.10;14.35;;;15.10;90.10;;;;;;4957134;28;20027;-77
2023/09/16 05:36:20;;;;;;;19.25;13.18;;;15.10;90.20;;;;;;4955671;28;20033;-75
2023/09/16 05:38:45;;;;;;;16.55;13.05;;;15.10;90.20;;;;;;4959898;28;20037;-76
2023/09/16 05:41:11;;;;;;;17.60;14.45;;;15.10;90.00;;;;;;4960133;28;20022;-76
2023/09/16 05:43:37;;;;;;;18.10;14.68;;;15.00;90.10;;;;;;4951183;28;20390;-76
2023/09/16 05:46:02;;;;;;;17.70;13.95;;;15.10;90.50;;;;;;4957815;28;20402;-75
2023/09/16 05:48:28;;;;;;;16.85;14.32;;;15.10;90.80;;;;;;4956508;28;20023;-77
2023/09/16 05:50:58;;;;;;;19.02;13.90;;;15.10;90.70;;;;;;4962262;28;20043;-77
2023/09/16 05:53:24;;;;;;;15.90;13.60;;;15.20;90.70;;;;;;4944482;28;20051;-78
2023/09/16 05:55:51;;;;;;;15.15;13.55;;;15.30;90.70;;;;;;4946414;28;20859;-78
2023/09/16 05:58:17;;;;;;;15.15;12.27;;;15.40;90.50;;;;;;4948041;28;20070;-77
2023/09/16 06:00:43;;;;;;;16.58;13.30;;;15.50;90.20;;;;;;4953672;28;20034;-77
2023/09/16 06:03:09;;;;;;;14.98;13.25;;;15.50;89.80;;;;;;4974103;28;20043;-77
2023/09/16 06:05:34;;;;;;;15.43;12.73;;;15.50;89.60;;;;;;4949379;28;20409;-77
2023/09/16 06:08:00;;;;;;;16.88;13.02;;;15.60;89.60;;;;;;4949048;28;20093;-75
2023/09/16 06:10:26;;;;;;;16.92;13.30;;;15.60;89.50;;;;;;4958641;28;20488;-76
2023/09/16 06:12:52;;;;;;;16.80;13.00;;;15.70;89.40;;;;;;4950484;28;20066;-77
2023/09/16 06:15:18;;;;;;;15.70;12.98;;;15.80;89.40;;;;;;4939867;28;20692;-77
2023/09/16 06:17:44;;;;;;;16.85;13.60;;;15.80;89.10;;;;;;4964865;28;20627;-78
2023/09/16 06:20:10;;;;;;;15.07;12.15;;;15.90;88.80;;;;;;4959667;28;20128;-78
2023/09/16 06:22:36;;;;;;;17.77;13.85;;;15.80;88.60;;;;;;4957853;28;20599;-76
2023/09/16 06:25:01;;;;;;;17.15;13.50;;;15.90;88.80;;;;;;4959822;28;20030;-75
2023/09/16 06:27:27;;;;;;;16.67;12.77;;;16.00;88.90;;;;;;4954456;28;20047;-75
2023/09/16 06:29:53;;;;;;;16.00;13.98;;;16.10;88.80;;;;;;4947350;28;20351;-74
2023/09/16 06:32:19;;;;;;;16.88;14.25;;;16.20;88.60;;;;;;4946004;28;20057;-75
2023/09/16 06:34:45;;;;;;;17.88;14.30;;;16.30;88.70;;;;;;4948633;28;20012;-74
2023/09/16 06:37:10;;;;;;;16.52;13.60;;;16.70;88.20;;;;;;4956092;28;20036;-74
2023/09/16 06:39:37;;;;;;;16.35;12.85;;;17.10;86.70;;;;;;4940095;28;20035;-75
2023/09/16 06:42:04;;;;;;;16.00;12.68;;;17.10;85.60;;;;;;4941004;28;20043;-74
2023/09/16 06:44:30;;;;;;;14.68;13.15;;;17.10;85.80;;;;;;4943399;28;20106;-75
2023/09/16 06:46:56;;;;;;;16.65;12.85;;;17.10;85.80;;;;;;4940299;28;20517;-75
2023/09/16 06:49:22;;;;;;;15.55;12.65;;;17.10;85.90;;;;;;4939046;28;20422;-74
2023/09/16 06:51:47;;;;;;;15.25;12.68;;;17.10;86.20;;;;;;4949408;28;20529;-75
2023/09/16 06:54:14;;;;;;;17.25;13.75;;;17.20;86.30;;;;;;5035993;28;20456;-75
2023/09/16 06:56:39;;;;;;;19.10;13.32;;;17.20;86.10;;;;;;5036716;28;20033;-75
2023/09/16 06:59:05;;;;;;;15.73;13.35;;;17.20;86.10;;;;;;4944622;28;20535;-76
2023/09/16 07:01:32;;;;;;;18.55;13.73;;;17.30;86.20;;;;;;4958838;28;20023;-73
2023/09/16 07:03:57;;;;;;;17.50;14.40;;;17.40;86.10;;;;;;4943093;28;20110;-74
2023/09/16 07:06:23;;;;;;;18.80;13.75;;;17.50;85.80;;;;;;4941173;28;20413;-76
2023/09/16 07:08:49;;;;;;;18.35;13.40;;;17.60;86.10;;;;;;4943208;28;20042;-72
2023/09/16 07:11:17;;;;;;;18.13;13.00;;;17.60;85.40;;;;;;4939832;28;20111;-73
2023/09/16 07:13:44;;;;;;;18.85;13.32;;;17.70;85.50;;;;;;4974976;28;20067;-73
2023/09/16 07:16:13;;;;;;;15.82;13.25;;;17.90;85.30;;;;;;4959712;28;20543;-74
2023/09/16 07:18:39;;;;;;;15.75;13.15;;;18.00;84.70;;;;;;4943358;28;20486;-74
2023/09/16 07:21:06;;;;;;;15.55;12.63;;;18.10;84.50;;;;;;4947035;28;20150;-74
2023/09/16 07:23:32;;;;;;;16.95;12.80;;;18.20;83.70;;;;;;4936640;28;20136;-73
2023/09/16 07:25:59;;;;;;;16.13;12.77;;;18.30;83.60;;;;;;4936429;28;20034;-74
2023/09/16 07:28:27;;;;;;;19.65;12.15;;;18.40;83.60;;;;;;4940247;28;20047;-74
2023/09/16 07:30:53;;;;;;;16.95;12.27;;;18.50;83.50;;;;;;4947093;28;20033;-74
2023/09/16 07:33:19;;;;;;;15.27;12.18;;;18.50;83.60;;;;;;4947895;28;20074;-75
2023/09/16 07:35:44;;;;;;;15.70;11.77;;;18.50;83.00;;;;;;4962965;28;20050;-74
2023/09/16 07:38:10;;;;;;;15.30;12.07;;;18.60;83.10;;;;;;4951338;28;20043;-75
2023/09/16 07:40:38;;;;;;;14.63;11.70;;;18.80;82.60;;;;;;4935187;28;20023;-75
2023/09/16 07:43:08;;;;;;;13.40;11.98;;;18.80;82.40;;;;;;4935548;28;20047;-75
2023/09/16 07:45:34;;;;;;;18.33;12.32;;;19.00;82.70;;;;;;4941223;28;20031;-75
2023/09/16 07:48:00;;;;;;;15.63;12.02;;;19.30;81.60;;;;;;4950848;28;20125;-74
2023/09/16 07:50:25;;;;;;;16.52;11.35;;;19.50;80.90;;;;;;4961712;28;20442;-75
2023/09/16 07:52:51;;;;;;;13.18;10.82;;;19.60;79.80;;;;;;4957124;28;20054;-76
2023/09/16 07:55:17;;;;;;;13.15;10.55;;;19.80;79.20;;;;;;4940414;28;20031;-75
2023/09/16 07:57:43;;;;;;;16.95;11.60;;;20.00;79.40;;;;;;4935405;28;20054;-75
2023/09/16 08:00:09;;;;;;;14.90;10.98;;;20.10;78.90;;;;;;4941678;28;20470;-73
2023/09/16 08:02:34;;;;;;;13.68;10.82;;;20.00;78.10;;;;;;4937232;28;20270;-76
2023/09/16 08:05:00;;;;;;;13.05;10.32;;;20.10;78.40;;;;;;4947507;28;20085;-76
2023/09/16 08:07:26;;;;;;;14.40;10.80;;;20.30;77.90;;;;;;4941313;28;20113;-75
2023/09/16 08:09:52;;;;;;;12.75;10.80;;;20.40;78.00;;;;;;4951888;28;20120;-75
2023/09/16 08:12:19;;;;;;;13.32;10.90;;;20.60;77.90;;;;;;4964304;28;20043;-74
2023/09/16 08:14:45;;;;;;;16.67;10.95;;;20.80;77.10;;;;;;4941836;28;20088;-76
2023/09/16 08:17:11;;;;;;;13.02;10.13;;;20.90;76.40;;;;;;4940564;28;20043;-73
2023/09/16 08:19:36;;;;;;;14.32;11.43;;;21.10;76.70;;;;;;4952826;28;21716;-73
2023/09/16 08:22:02;;;;;;;13.80;11.13;;;21.40;76.10;;;;;;4942670;28;20584;-73
2023/09/16 08:24:28;;;;;;;12.70;10.40;;;21.50;74.70;;;;;;4939766;28;20035;-73
2023/09/16 08:26:54;;;;;;;13.20;10.23;;;21.50;75.80;;;;;;4952861;28;20132;-74
2023/09/16 08:29:19;;;;;;;14.05;10.63;;;21.70;75.90;;;;;;4939239;28;20426;-73
2023/09/16 08:31:45;;;;;;;12.48;10.13;;;22.00;74.70;;;;;;4951809;28;20031;-73
2023/09/16 08:34:11;;;;;;;12.00;9.45;;;22.10;74.20;;;;;;4976704;28;20049;-74
2023/09/16 08:36:36;;;;;;;14.02;10.13;;;22.10;73.60;;;;;;4958948;28;20104;-74
2023/09/16 08:39:02;;;;;;;11.38;9.57;;;22.10;73.70;;;;;;4960580;28;20038;-75
2023/09/16 08:41:43;;;;;;;14.02;10.45;;;22.00;74.20;;;;;;4958564;28;20110;-73
2023/09/16 08:44:12;;;;;;;16.10;12.45;;;22.20;74.80;;;;;;4956042;27;20123;-74
2023/09/16 08:46:42;;;;;;;13.27;11.13;;;22.50;73.40;;;;;;4956059;28;20117;-74
2023/09/16 08:49:12;;;;;;;14.32;10.65;;;22.10;73.50;;;;;;4959693;28;20042;-74
2023/09/16 08:51:41;;;;;;;14.77;11.90;;;22.00;74.20;;;;;;4960000;28;20080;-76
2023/09/16 08:54:09;;;;;;;16.23;11.75;;;22.00;74.70;;;;;;4962472;28;21194;-73
2023/09/16 08:56:36;;;;;;;11.50;9.85;;;22.40;74.50;;;;;;4963737;28;20087;-73
2023/09/16 08:59:02;;;;;;;15.70;10.43;;;22.60;75.00;;;;;;4944497;28;20027;-74
2023/09/16 09:01:29;;;;;;;13.13;9.88;;;23.10;74.00;;;;;;4946516;28;20116;-75
2023/09/16 09:03:55;;;;;;;11.77;9.80;;;23.60;71.70;;;;;;4950777;28;20039;-73
2023/09/16 09:06:22;;;;;;;12.95;9.80;;;23.70;70.10;;;;;;4945816;28;20030;-74
2023/09/16 09:08:48;;;;;;;12.88;8.95;;;23.70;69.80;;;;;;4956181;28;20112;-73
2023/09/16 09:11:15;;;;;;;11.95;8.20;;;23.80;70.00;;;;;;4958869;28;20055;-74
2023/09/16 09:13:45;;;;;;;9.93;8.35;;;24.00;69.40;;;;;;5008016;28;20044;-76
2023/09/16 09:16:15;;;;;;;10.63;8.07;;;24.10;68.60;;;;;;5053174;28;20044;-75
2023/09/16 09:18:42;;;;;;;11.15;7.65;;;24.20;68.50;;;;;;4979749;28;20034;-75
2023/09/16 09:21:08;;;;;;;11.43;8.10;;;24.00;69.00;;;;;;4970387;28;20041;-74
2023/09/16 09:23:34;;;;;;;14.07;7.35;;;24.00;68.40;;;;;;4949068;28;20043;-75
2023/09/16 09:25:59;;;;;;;11.30;7.65;;;24.00;68.90;;;;;;4991130;28;20021;-75
2023/09/16 09:28:27;;;;;;;11.88;8.02;;;23.80;68.00;;;;;;4942980;28;20059;-74
2023/09/16 09:30:53;;;;;;;11.55;7.85;;;23.60;69.00;;;;;;4944376;28;20035;-73
2023/09/16 09:33:21;;;;;;;11.02;8.30;;;23.80;70.90;;;;;;4953463;28;20576;-77
2023/09/16 09:35:46;;;;;;;10.85;7.20;;;24.10;69.60;;;;;;4944384;28;20552;-76
2023/09/16 09:38:14;;;;;;;11.50;7.60;;;24.30;68.10;;;;;;4945048;28;20035;-75
2023/09/16 09:40:56;;;;;;;12.20;6.80;;;24.60;67.00;;;;;;4963116;28;20035;-75
2023/09/16 09:43:23;;;;;;;10.15;6.63;;;24.90;66.40;;;;;;4944956;28;20047;-76
2023/09/16 09:45:49;;;;;;;10.35;6.78;;;25.30;65.60;;;;;;4939104;28;20549;-76
2023/09/16 09:48:15;;;;;;;10.65;6.70;;;25.40;64.90;;;;;;4939442;28;20049;-75
2023/09/16 09:50:41;;;;;;;7.88;5.63;;;25.40;64.40;;;;;;4944430;28;20383;-76
2023/09/16 09:53:07;;;;;;;9.25;5.85;;;25.70;63.90;;;;;;4937209;28;20055;-74
2023/09/16 09:55:33;;;;;;;8.88;5.10;;;26.00;63.20;;;;;;4945258;28;20039;-75
2023/09/16 09:57:59;;;;;;;9.48;4.97;;;26.10;62.00;;;;;;4945136;28;20028;-77
2023/09/16 10:00:26;;;;;;;10.95;6.00;;;26.20;60.60;;;;;;4943265;28;20429;-77
2023/09/16 10:02:52;;;;;;;8.27;5.80;;;26.00;60.70;;;;;;4944452;28;20087;-75
2023/09/16 10:05:20;;;;;;;10.30;5.15;;;26.00;60.70;;;;;;4974695;28;20422;-76
2023/09/16 10:07:46;;;;;;;7.03;4.38;;;25.90;61.20;;;;;;4952569;28;20051;-75
2023/09/16 10:10:22;;;;;;;9.65;5.32;;;25.80;60.30;;;;;;4941593;28;20114;-74
2023/09/16 10:12:50;;;;;;;7.15;4.60;;;25.20;62.40;;;;;;4942864;28;20441;-75
2023/09/16 10:15:16;;;;;;;8.30;4.20;;;25.60;61.70;;;;;;4958150;28;20543;-74
2023/09/16 10:17:43;;;;;;;7.90;4.25;;;25.80;61.20;;;;;;4957194;28;20038;-76
2023/09/16 10:20:11;;;;;;;8.02;4.30;;;26.00;60.60;;;;;;4938462;28;20374;-74
2023/09/16 10:22:39;;;;;;;8.95;4.00;;;26.30;59.80;;;;;;4938636;28;20732;-74
2023/09/16 10:25:06;;;;;;;10.48;4.97;;;26.20;59.40;;;;;;4940418;28;20035;-75
2023/09/16 10:27:37;;;;;;;7.30;4.00;;;26.30;58.10;;;;;;4940323;28;20105;-75
2023/09/16 10:30:04;;;;;;;7.95;4.05;;;26.30;57.80;;;;;;4941487;28;20487;-74
2023/09/16 10:32:30;;;;;;;10.45;4.90;;;26.10;58.60;;;;;;4965336;28;20039;-75
2023/09/16 10:34:59;;;;;;;8.02;4.28;;;26.20;58.60;;;;;;4948867;28;20097;-76
2023/09/16 10:37:25;;;;;;;7.18;3.83;;;26.20;58.10;;;;;;4944880;28;20047;-75
2023/09/16 10:39:53;;;;;;;7.65;4.15;;;26.30;58.90;;;;;;4945255;28;20117;-75
2023/09/16 10:42:21;;;;;;;8.02;4.43;;;26.30;57.80;;;;;;4939709;28;20509;-76
2023/09/16 10:44:48;;;;;;;8.43;4.47;;;26.20;58.80;;;;;;4958071;28;20027;-76
2023/09/16 10:47:16;;;;;;;9.23;4.85;;;26.50;58.60;;;;;;4958708;28;20036;-77
2023/09/16 10:49:43;;;;;;;8.05;4.50;;;26.70;57.90;;;;;;4968712;28;20035;-76
2023/09/16 10:52:16;;;;;;;9.80;4.80;;;26.90;57.50;;;;;;4957158;28;20204;-76
2023/09/16 10:54:49;;;;;;;8.30;4.82;;;27.10;57.90;;;;;;4945336;28;20039;-75
2023/09/16 10:57:26;;;;;;;7.75;4.57;;;27.10;57.50;;;;;;5041850;28;20039;-74
2023/09/16 10:59:53;;;;;;;8.23;4.63;;;27.30;56.40;;;;;;4943387;28;20042;-75
2023/09/16 11:02:47;;;;;;;6.93;4.30;;;27.20;56.90;;;;;;4943777;28;20781;-75
2023/09/16 11:05:14;;;;;;;7.45;4.78;;;27.40;57.40;;;;;;4955846;28;20473;-78
2023/09/16 11:07:41;;;;;;;8.10;4.53;;;27.50;56.70;;;;;;4957540;28;20039;-73
2023/09/16 11:10:08;;;;;;;7.10;4.80;;;27.60;57.20;;;;;;4961172;28;20074;-74
2023/09/16 11:12:34;;;;;;;7.28;4.75;;;27.80;56.10;;;;;;4956618;28;20057;-74
2023/09/16 11:15:08;;;;;;;7.78;4.70;;;27.30;57.50;;;;;;4959282;28;20035;-75
2023/09/16 11:17:38;;;;;;;7.80;4.50;;;27.10;58.20;;;;;;4972163;28;20116;-73
2023/09/16 11:20:20;;;;;;;7.93;4.65;;;27.10;57.30;;;;;;4959502;28;20092;-75
2023/09/16 11:22:48;;;;;;;8.45;4.53;;;26.90;58.30;;;;;;4958812;28;20039;-74
2023/09/16 11:25:17;;;;;;;9.23;4.50;;;26.60;59.10;;;;;;4956864;28;20084;-73
2023/09/16 11:27:46;;;;;;;7.70;4.50;;;26.60;58.50;;;;;;4957737;28;20152;-74
2023/09/16 11:30:16;;;;;;;7.53;4.20;;;27.00;58.70;;;;;;4958045;28;20066;-75
2023/09/16 11:33:04;;;;;;;9.65;4.32;;;27.00;57.30;;;;;;4959236;28;20069;-73
2023/09/16 11:35:31;;;;;;;8.38;4.53;;;27.10;57.20;;;;;;4970250;28;20384;-74
2023/09/16 11:37:57;;;;;;;7.93;4.07;;;27.40;57.90;;;;;;4947527;28;20040;-74
2023/09/16 11:40:26;;;;;;;6.97;4.10;;;27.50;56.50;;;;;;4940242;28;20081;-72
2023/09/16 11:42:53;;;;;;;7.55;4.60;;;27.20;57.60;;;;;;4939855;28;20058;-73
2023/09/16 11:45:18;;;;;;;6.53;4.10;;;26.80;56.30;;;;;;4939661;28;20114;-74
2023/09/16 11:47:47;;;;;;;7.75;4.20;;;26.80;57.20;;;;;;4943370;28;20118;-73
2023/09/16 11:50:20;;;;;;;8.40;4.10;;;26.80;56.30;;;;;;4951287;28;20039;-74
2023/09/16 11:52:46;;;;;;;7.53;4.45;;;27.00;55.90;;;;;;4935618;28;20062;-73
2023/09/16 11:55:13;;;;;;;8.80;4.43;;;27.10;56.00;;;;;;4936415;28;20469;-73
2023/09/16 11:57:39;;;;;;;7.55;4.53;;;27.10;55.00;;;;;;4939783;28;20051;-74
2023/09/16 12:00:07;;;;;;;9.15;4.50;;;26.90;56.20;;;;;;4958995;28;20115;-72
2023/09/16 12:02:33;;;;;;;6.78;4.68;;;27.00;56.40;;;;;;4956677;27;20137;-72
2023/09/16 12:05:02;;;;;;;6.70;4.50;;;26.90;56.60;;;;;;4957863;28;20030;-74
2023/09/16 12:07:31;;;;;;;6.95;4.40;;;27.00;56.30;;;;;;4957878;28;20027;-72
2023/09/16 12:09:59;;;;;;;6.90;4.00;;;26.80;56.60;;;;;;4960100;28;20979;-75
2023/09/16 12:12:25;;;;;;;6.80;4.50;;;26.80;57.00;;;;;;4958149;28;20523;-71
2023/09/16 12:14:52;;;;;;;8.25;4.13;;;26.70;56.40;;;;;;4957598;28;20037;-73
2023/09/16 12:17:18;;;;;;;9.25;4.85;;;27.10;57.60;;;;;;4950499;28;20386;-72
2023/09/16 12:19:55;;;;;;;7.10;4.40;;;27.10;55.70;;;;;;4933892;28;20114;-73
2023/09/16 12:22:21;;;;;;;8.05;4.50;;;27.20;57.40;;;;;;4928413;28;20130;-73
2023/09/16 12:24:51;;;;;;;6.95;4.53;;;27.30;56.40;;;;;;4941314;28;20039;-72
2023/09/16 12:27:17;;;;;;;6.50;4.25;;;27.50;56.10;;;;;;4939418;28;20074;-74
2023/09/16 12:29:43;;;;;;;8.18;5.00;;;27.40;54.80;;;;;;4941223;28;20124;-75
2023/09/16 12:32:10;;;;;;;9.43;4.90;;;27.10;56.50;;;;;;4940086;28;20506;-75